Time;durP1;ratioP1;P1;durP2;ratioP2;P2;SDS_P1;SDS_P2;PMS_P1;PMS_P2;Temp;Humidity;BMP_temperature;BMP_pressure;BME280_temperature;BME280_humidity;BME280_pressure;Samples;Min_cycle;Max_cycle;Signal;HPM_P1;HPM_P2
2022/03/03 00:01:36;;;;;;;;;29.50;28.00;;;;;19.50;29.18;101234.56;5078349;27;45251;-51
2022/03/03 00:04:02;;;;;;;;;33.00;30.25;;;;;19.48;28.97;101231.13;5078145;27;45165;-54
2022/03/03 00:06:28;;;;;;;;;34.50;31.50;;;;;19.49;29.44;101238.09;5077837;27;45221;-54
2022/03/03 00:08:53;;;;;;;;;33.00;28.50;;;;;19.48;29.50;101236.38;5077921;27;45366;-52
2022/03/03 00:11:18;;;;;;;;;31.33;28.67;;;;;19.47;29.43;101229.41;5078071;27;45599;-54
2022/03/03 00:13:44;;;;;;;;;31.50;28.00;;;;;19.45;29.31;101229.50;5076407;28;46536;-53
2022/03/03 00:16:09;;;;;;;;;30.50;28.50;;;;;19.41;29.34;101225.28;5077667;27;45313;-55
2022/03/03 00:18:35;;;;;;;;;32.00;29.25;;;;;19.42;29.51;101227.00;5078226;27;45412;-54
2022/03/03 00:21:00;;;;;;;;;33.50;29.50;;;;;19.42;29.16;101223.50;5076707;28;45500;-53
2022/03/03 00:23:25;;;;;;;;;35.00;28.00;;;;;19.40;29.27;101222.75;5077838;27;45264;-54
2022/03/03 00:25:51;;;;;;;;;31.00;29.25;;;;;19.39;29.40;101226.28;5077576;27;45212;-54
2022/03/03 00:28:16;;;;;;;;;27.50;26.25;;;;;19.38;29.48;101224.56;5077608;28;45534;-53
2022/03/03 00:30:42;;;;;;;;;30.50;27.00;;;;;19.37;29.55;101228.97;5077994;27;45378;-54
2022/03/03 00:33:07;;;;;;;;;38.75;32.00;;;;;19.35;29.63;101225.53;5077321;28;45972;-55
2022/03/03 00:35:32;;;;;;;;;32.25;26.75;;;;;19.36;29.23;101231.66;5077728;27;45358;-55
2022/03/03 00:37:58;;;;;;;;;28.75;27.75;;;;;19.32;29.33;101230.97;5076258;28;45416;-55
2022/03/03 00:40:23;;;;;;;;;35.75;30.50;;;;;19.33;29.42;101242.31;5076147;27;45491;-54
2022/03/03 00:42:48;;;;;;;;;34.50;31.25;;;;;19.31;29.31;101235.34;5093026;27;47899;-52
2022/03/03 00:45:14;;;;;;;;;32.25;31.00;;;;;19.28;29.76;101229.38;5075970;28;46401;-53
2022/03/03 00:47:39;;;;;;;;;34.25;31.00;;;;;19.27;29.73;101232.91;5077458;27;45309;-57
2022/03/03 00:50:05;;;;;;;;;32.25;31.25;;;;;19.28;29.28;101235.50;5076454;27;45359;-56
2022/03/03 00:52:31;;;;;;;;;37.00;30.75;;;;;19.26;29.64;101237.34;5075979;28;45529;-56
2022/03/03 00:54:56;;;;;;;;;33.50;30.50;;;;;19.26;29.77;101241.72;5077070;27;45339;-54
2022/03/03 00:57:21;;;;;;;;;34.25;31.25;;;;;19.25;29.64;101240.00;5077377;27;45257;-54
2022/03/03 00:59:47;;;;;;;;;32.25;28.75;;;;;19.23;29.81;101239.25;5077536;27;45525;-55
2022/03/03 01:02:12;;;;;;;;;29.25;28.50;;;;;19.22;29.74;101245.41;5077216;27;45380;-54
2022/03/03 01:04:37;;;;;;;;;36.33;32.33;;;;;19.20;29.79;101237.59;5076975;28;51272;-50
2022/03/03 01:07:05;;;;;;;;;31.75;30.25;;;;;19.20;29.73;101236.75;5077362;27;45283;-53
2022/03/03 01:09:30;;;;;;;;;37.00;31.25;;;;;19.18;29.84;101238.56;5077192;27;45482;-53
2022/03/03 01:11:56;;;;;;;;;27.50;26.00;;;;;19.16;29.87;101239.50;5076854;27;45306;-56
2022/03/03 01:14:23;;;;;;;;;31.75;28.75;;;;;19.15;29.61;101236.94;5076715;27;45595;-50
2022/03/03 01:16:50;;;;;;;;;34.75;30.50;;;;;19.15;29.76;101237.78;5077099;27;45360;-54
2022/03/03 01:19:16;;;;;;;;;33.50;32.00;;;;;19.14;29.88;101240.50;5075705;27;45312;-56
2022/03/03 01:21:41;;;;;;;;;33.50;29.75;;;;;19.13;29.83;101228.28;5076838;27;45944;-52
2022/03/03 01:24:06;;;;;;;;;32.25;31.25;;;;;19.10;29.98;101233.66;5077100;27;45170;-55
2022/03/03 01:26:32;;;;;;;;;35.50;32.75;;;;;19.10;29.97;101236.28;5076701;27;45193;-55
2022/03/03 01:28:57;;;;;;;;;30.75;28.75;;;;;19.10;29.86;101225.75;5077088;27;45643;-53
2022/03/03 01:31:23;;;;;;;;;33.25;31.00;;;;;19.07;29.78;101221.50;5076598;27;45279;-56
2022/03/03 01:33:48;;;;;;;;;35.33;28.67;;;;;19.06;29.99;101219.78;5075226;27;45304;-52
2022/03/03 01:36:13;;;;;;;;;35.25;31.50;;;;;19.05;30.01;101222.50;5076765;27;45310;-50
2022/03/03 01:38:39;;;;;;;;;40.75;33.25;;;;;19.05;29.77;101217.25;5076764;28;45515;-49
2022/03/03 01:41:04;;;;;;;;;37.00;33.25;;;;;19.04;29.79;101219.00;5075523;28;45283;-52
2022/03/03 01:43:30;;;;;;;;;30.00;28.50;;;;;19.03;30.13;101219.91;5076400;27;45331;-51
2022/03/03 01:45:55;;;;;;;;;35.00;33.00;;;;;19.02;30.16;101212.94;5076687;27;45334;-51
2022/03/03 01:48:20;;;;;;;;;34.75;29.50;;;;;18.99;30.12;101213.94;5076546;27;45514;-52
2022/03/03 01:50:46;;;;;;;;;35.75;33.75;;;;;19.01;30.01;101216.53;5076255;27;46232;-52
2022/03/03 01:53:11;;;;;;;;;35.75;28.75;;;;;19.00;29.77;101209.56;5078468;27;45430;-55
2022/03/03 01:55:36;;;;;;;;;35.75;32.50;;;;;18.96;30.02;101210.59;5080570;27;45519;-52
2022/03/03 01:58:03;;;;;;;;;33.50;30.75;;;;;18.97;30.05;101209.69;5080201;27;45547;-50
2022/03/03 02:00:29;;;;;;;;;36.75;33.25;;;;;18.95;30.26;101207.13;5078635;27;46220;-53
2022/03/03 02:02:54;;;;;;;;;43.75;33.75;;;;;18.95;29.87;101209.75;5079781;27;45432;-51
2022/03/03 02:05:20;;;;;;;;;38.00;34.75;;;;;18.94;30.15;101208.06;5078586;28;45332;-55
2022/03/03 02:07:45;;;;;;;;;36.75;33.50;;;;;18.93;30.03;101206.34;5080044;27;45525;-53
2022/03/03 02:10:11;;;;;;;;;39.25;32.75;;;;;18.89;30.25;101196.00;5079697;27;46074;-49
2022/03/03 02:12:37;;;;;;;;;42.00;33.50;;;;;18.89;29.93;101198.63;5080021;27;45354;-53
2022/03/03 02:15:03;;;;;;;;;35.50;32.75;;;;;18.89;30.20;101207.34;5079719;27;45246;-53
2022/03/03 02:17:29;;;;;;;;;41.00;32.50;;;;;18.88;30.02;101207.41;5079802;27;45480;-51
2022/03/03 02:19:54;;;;;;;;;39.75;34.75;;;;;18.87;30.28;101203.09;5079483;27;46057;-55
2022/03/03 02:22:19;;;;;;;;;38.00;33.75;;;;;18.85;30.36;101205.78;5079495;27;45358;-55
2022/03/03 02:24:45;;;;;;;;;43.50;31.50;;;;;18.84;30.35;101209.34;5079776;27;45198;-54
2022/03/03 02:27:11;;;;;;;;;45.25;34.25;;;;;18.83;30.28;101202.38;5079997;27;45478;-55
2022/03/03 02:29:37;;;;;;;;;33.75;31.75;;;;;18.83;30.30;101203.22;5079942;27;47731;-54
2022/03/03 02:32:05;;;;;;;;;39.75;32.50;;;;;18.80;30.30;101198.06;5079362;27;45408;-55
2022/03/03 02:34:31;;;;;;;;;35.75;33.50;;;;;18.79;30.05;101196.41;5079502;27;45354;-54
2022/03/03 02:36:56;;;;;;;;;40.75;34.00;;;;;18.78;30.30;101192.06;5079682;27;45441;-53
2022/03/03 02:39:21;;;;;;;;;39.75;33.75;;;;;18.80;30.55;101198.06;5079406;27;45372;-51
2022/03/03 02:41:47;;;;;;;;;37.50;32.00;;;;;18.75;30.56;101184.31;5079452;27;45398;-53
2022/03/03 02:44:12;;;;;;;;;38.75;33.00;;;;;18.78;30.49;101184.19;5079432;27;45484;-52
2022/03/03 02:46:37;;;;;;;;;30.75;30.75;;;;;18.76;30.46;101187.78;5079801;27;45210;-52
2022/03/03 02:49:04;;;;;;;;;33.00;30.50;;;;;18.76;30.28;101178.13;5078977;27;45423;-52
2022/03/03 02:51:30;;;;;;;;;36.75;31.50;;;;;18.77;30.29;101187.72;5077973;28;45670;-52
2022/03/03 02:53:55;;;;;;;;;42.00;34.25;;;;;18.78;30.42;101183.31;5079170;27;45302;-56
2022/03/03 02:56:21;;;;;;;;;37.00;33.75;;;;;18.74;30.34;101179.97;5079358;27;45164;-50
2022/03/03 02:58:46;;;;;;;;;38.00;34.50;;;;;18.75;30.32;101181.69;5078897;27;45400;-54
2022/03/03 03:01:12;;;;;;;;;40.50;32.25;;;;;18.76;30.75;101175.50;5079202;27;45504;-53
2022/03/03 03:03:38;;;;;;;;;36.50;31.50;;;;;18.76;30.58;101178.13;5078178;27;45406;-53
2022/03/03 03:06:03;;;;;;;;;36.50;33.00;;;;;18.76;30.44;101174.63;5079037;27;45361;-53
2022/03/03 03:08:29;;;;;;;;;43.25;34.50;;;;;18.75;30.47;101172.94;5078820;27;45467;-52
2022/03/03 03:10:54;;;;;;;;;37.00;32.75;;;;;18.74;30.51;101169.47;5078875;28;45380;-53
2022/03/03 03:13:20;;;;;;;;;36.00;30.50;;;;;18.72;30.72;101166.03;5077591;27;45467;-53
2022/03/03 03:15:45;;;;;;;;;39.75;33.75;;;;;18.72;30.58;101166.03;5078785;27;45528;-55
2022/03/03 03:18:12;;;;;;;;;36.00;32.25;;;;;18.71;30.58;101161.72;5079028;27;45608;-54
2022/03/03 03:20:43;;;;;;;;;37.75;32.00;;;;;18.72;30.55;101147.66;5078701;27;45268;-54
2022/03/03 03:23:13;;;;;;;;;36.00;32.50;;;;;18.72;30.73;101147.66;5078938;27;45461;-54
2022/03/03 03:25:39;;;;;;;;;36.50;32.75;;;;;18.70;30.87;101149.50;5078825;27;45588;-53
2022/03/03 03:28:05;;;;;;;;;40.75;33.00;;;;;18.70;30.74;101147.75;5078430;27;47026;-54
2022/03/03 03:30:31;;;;;;;;;39.00;31.50;;;;;18.70;30.88;101141.63;5078454;28;45271;-54
2022/03/03 03:32:57;;;;;;;;;34.25;31.00;;;;;18.70;30.91;101146.88;5078635;27;45463;-55
2022/03/03 03:35:23;;;;;;;;;37.50;33.75;;;;;18.67;30.77;101145.25;5078710;27;45656;-53
2022/03/03 03:37:49;;;;;;;;;32.50;31.00;;;;;18.69;31.01;101146.03;5078302;27;45351;-53
2022/03/03 03:40:15;;;;;;;;;38.50;32.50;;;;;18.70;31.30;101149.50;5078487;27;45304;-52
2022/03/03 03:42:40;;;;;;;;;30.00;29.00;;;;;18.70;30.93;101145.13;5077446;27;45292;-56
2022/03/03 03:45:06;;;;;;;;;32.75;30.50;;;;;18.68;30.77;101136.44;5078475;27;45301;-56
2022/03/03 03:47:32;;;;;;;;;3.50;1.00;;;;;18.68;30.92;101136.44;5078175;27;45269;-55
2022/03/03 03:50:02;;;;;;;;;36.50;31.50;;;;;18.68;30.93;101131.19;5078385;27;45379;-53
2022/03/03 03:52:27;;;;;;;;;37.00;32.25;;;;;18.66;31.17;101138.28;5078286;27;45390;-54
2022/03/03 03:54:52;;;;;;;;;34.50;30.75;;;;;18.67;30.87;101126.03;5078488;27;45329;-51
2022/03/03 03:57:18;;;;;;;;;32.50;29.25;;;;;18.68;31.14;101125.09;5077964;27;46121;-56
2022/03/03 03:59:43;;;;;;;;;32.25;28.75;;;;;18.68;30.87;101115.44;5078335;27;45293;-53
2022/03/03 04:02:09;;;;;;;;;39.50;31.75;;;;;18.67;30.82;101118.16;5093862;27;45346;-54
2022/03/03 04:04:34;;;;;;;;;34.75;32.25;;;;;18.66;31.21;101111.19;5078277;27;45379;-54
2022/03/03 04:07:00;;;;;;;;;33.25;28.50;;;;;18.66;31.24;101126.94;5077856;27;46291;-54
2022/03/03 04:09:25;;;;;;;;;32.25;28.25;;;;;18.64;30.94;101118.25;5077842;27;45341;-53
2022/03/03 04:11:50;;;;;;;;;36.67;31.67;;;;;18.64;31.28;101105.13;5076803;28;45407;-53
2022/03/03 04:14:16;;;;;;;;;33.75;30.25;;;;;18.65;31.00;101114.72;5078186;27;45303;-55
2022/03/03 04:16:41;;;;;;;;;32.75;30.00;;;;;18.63;31.10;101111.31;5077661;27;45566;-55
2022/03/03 04:19:07;;;;;;;;;33.00;29.75;;;;;18.64;31.04;101108.59;5077894;27;45362;-54
2022/03/03 04:21:32;;;;;;;;;39.25;30.75;;;;;18.65;31.16;101106.84;5076687;28;45435;-50
2022/03/03 04:23:58;;;;;;;;;27.25;27.25;;;;;18.63;31.26;101101.66;5076618;27;45237;-54
2022/03/03 04:26:23;;;;;;;;;33.00;29.00;;;;;18.64;31.18;101089.38;5077422;27;46150;-53
2022/03/03 04:28:48;;;;;;;;;34.00;28.75;;;;;18.64;31.41;101103.34;5077538;27;45286;-55
2022/03/03 04:31:14;;;;;;;;;30.50;27.75;;;;;18.63;31.09;101095.56;5078032;27;45285;-54
2022/03/03 04:33:39;;;;;;;;;30.00;30.00;;;;;18.61;31.31;101084.25;5077841;27;45546;-53
2022/03/03 04:36:05;;;;;;;;;33.50;29.25;;;;;18.62;31.32;101085.97;5077370;27;46133;-55
2022/03/03 04:38:31;;;;;;;;;29.00;27.25;;;;;18.63;31.38;101087.69;5077254;27;45368;-50
2022/03/03 04:40:56;;;;;;;;;30.25;28.75;;;;;18.63;31.29;101085.06;5077665;27;45278;-53
2022/03/03 04:43:21;;;;;;;;;28.25;25.50;;;;;18.62;31.43;101083.34;5077704;27;45623;-55
2022/03/03 04:45:47;;;;;;;;;29.00;28.50;;;;;18.60;31.40;101082.56;5077596;27;46270;-52
2022/03/03 04:48:12;;;;;;;;;32.25;29.25;;;;;18.61;31.32;101085.13;5077203;27;45417;-53
2022/03/03 04:50:38;;;;;;;;;26.25;25.25;;;;;18.60;31.46;101079.94;5077397;28;45310;-54
2022/03/03 04:53:03;;;;;;;;;24.25;23.75;;;;;18.61;31.50;101079.88;5077617;27;45416;-51
2022/03/03 04:55:29;;;;;;;;;29.50;26.25;;;;;18.61;31.34;101076.38;5077326;27;45469;-52
2022/03/03 04:57:54;;;;;;;;;29.25;27.75;;;;;18.59;31.59;101068.59;5076984;27;45334;-53
2022/03/03 05:00:20;;;;;;;;;31.50;27.00;;;;;18.56;31.52;101057.38;5077262;28;45318;-52
2022/03/03 05:02:45;;;;;;;;;32.50;29.75;;;;;18.59;31.46;101065.09;5076370;28;45340;-52
2022/03/03 05:05:11;;;;;;;;;29.75;28.00;;;;;18.59;31.54;101073.84;5077049;27;45405;-52
2022/03/03 05:07:36;;;;;;;;;34.75;29.50;;;;;18.58;31.40;101068.63;5076968;27;45395;-54
2022/03/03 05:10:03;;;;;;;;;32.50;27.25;;;;;18.58;31.74;101071.25;5077094;27;45262;-52
2022/03/03 05:12:29;;;;;;;;;30.25;29.00;;;;;18.59;31.64;101070.34;5077376;27;45234;-54
2022/03/03 05:14:54;;;;;;;;;27.75;25.00;;;;;18.57;31.68;101059.09;5076942;27;45954;-50
2022/03/03 05:17:19;;;;;;;;;35.75;27.00;;;;;18.56;31.65;101062.63;5077351;27;45860;-52
2022/03/03 05:19:45;;;;;;;;;31.75;28.50;;;;;18.57;31.67;101066.97;5076038;28;47704;-55
2022/03/03 05:22:11;;;;;;;;;26.50;24.50;;;;;18.58;31.87;101072.13;5075964;28;45635;-54
2022/03/03 05:24:38;;;;;;;;;26.00;24.50;;;;;18.57;31.61;101064.34;5076779;27;45467;-53
2022/03/03 05:27:04;;;;;;;;;27.25;25.50;;;;;18.54;31.90;101060.91;5074505;28;45969;-54
2022/03/03 05:29:29;;;;;;;;;25.25;24.25;;;;;18.57;31.88;101064.34;5076933;27;45386;-52
2022/03/03 05:31:57;;;;;;;;;23.00;22.25;;;;;18.54;31.66;101055.66;5077093;27;45330;-50
2022/03/03 05:34:23;;;;;;;;;31.50;30.00;;;;;18.54;31.97;101053.03;5076628;27;45266;-55
2022/03/03 05:36:48;;;;;;;;;26.50;26.25;;;;;18.56;31.86;101062.63;5076966;27;45414;-50
2022/03/03 05:39:15;;;;;;;;;24.75;23.75;;;;;18.53;31.69;101059.22;5076841;28;45263;-49
2022/03/03 05:41:41;;;;;;;;;30.75;25.00;;;;;18.54;32.12;101063.53;5076796;27;45227;-48
2022/03/03 05:44:12;;;;;;;;;24.50;23.50;;;;;18.53;31.92;101071.47;5076497;27;46411;-49
2022/03/03 05:46:38;;;;;;;;;24.25;24.00;;;;;18.51;32.00;101066.28;5076447;27;45830;-52
2022/03/03 05:49:04;;;;;;;;;25.25;23.00;;;;;18.53;32.02;101069.72;5076676;27;45413;-51
2022/03/03 05:51:31;;;;;;;;;28.25;27.75;;;;;18.53;32.14;101072.34;5076683;27;45595;-53
2022/03/03 05:53:56;;;;;;;;;24.00;21.75;;;;;18.53;32.00;101072.34;5076448;27;46348;-52
2022/03/03 05:56:22;;;;;;;;;26.75;26.50;;;;;18.53;31.96;101074.97;5075158;27;45430;-52
2022/03/03 05:58:50;;;;;;;;;24.50;23.00;;;;;18.53;32.09;101071.47;5092432;27;45382;-53
2022/03/03 06:01:17;;;;;;;;;22.00;21.00;;;;;18.52;31.97;101073.25;5076387;27;45471;-53
2022/03/03 06:03:46;;;;;;;;;24.75;22.75;;;;;18.52;31.97;101073.25;5075001;28;46324;-53
2022/03/03 06:06:25;;;;;;;;;26.50;23.50;;;;;18.53;32.30;101063.59;5076272;27;45403;-52
2022/03/03 06:09:02;;;;;;;;;25.00;22.00;;;;;18.51;32.14;101061.03;5076515;27;45379;-52
2022/03/03 06:11:28;;;;;;;;;27.75;26.00;;;;;18.52;32.44;101062.75;5076617;28;45294;-50
2022/03/03 06:14:05;;;;;;;;;24.00;22.25;;;;;18.51;32.04;101053.16;5075957;27;46355;-51
2022/03/03 06:16:31;;;;;;;;;24.25;22.75;;;;;18.52;32.38;101056.66;5076002;27;45291;-53
2022/03/03 06:18:59;;;;;;;;;25.00;23.75;;;;;18.49;32.28;101062.88;5076150;27;45872;-51
2022/03/03 06:21:24;;;;;;;;;22.00;22.00;;;;;18.49;32.25;101062.88;5076322;27;45622;-54
2022/03/03 06:23:50;;;;;;;;;20.25;20.25;;;;;18.51;32.56;101076.78;5076183;27;46260;-55
2022/03/03 06:26:18;;;;;;;;;26.25;24.50;;;;;18.50;32.19;101075.09;5075962;27;45381;-52
2022/03/03 06:28:44;;;;;;;;;23.75;22.50;;;;;18.48;32.23;101071.66;5076036;27;45333;-56
2022/03/03 06:31:10;;;;;;;;;27.50;25.00;;;;;18.50;32.30;101076.88;5076184;27;45205;-54
2022/03/03 06:33:35;;;;;;;;;24.25;23.00;;;;;18.51;32.42;101075.94;5075766;27;46220;-56
2022/03/03 06:36:01;;;;;;;;;23.25;22.50;;;;;18.49;32.08;101083.88;5075959;27;45256;-53
2022/03/03 06:38:27;;;;;;;;;25.50;23.00;;;;;18.50;32.25;101084.75;5076793;27;45537;-53
2022/03/03 06:40:57;;;;;;;;;22.25;21.50;;;;;18.49;32.37;101078.63;5078547;28;45444;-55
2022/03/03 06:43:29;;;;;;;;;20.00;17.00;;;;;18.48;32.60;101087.41;5079477;27;46989;-54
2022/03/03 06:45:55;;;;;;;;;21.25;19.25;;;;;18.48;32.32;101079.53;5079493;27;45431;-54
2022/03/03 06:48:20;;;;;;;;;26.75;23.75;;;;;18.48;32.66;101087.41;5079584;28;45402;-53
2022/03/03 06:50:50;;;;;;;;;25.00;22.00;;;;;18.49;32.32;101089.13;5079524;27;45302;-54
2022/03/03 06:53:19;;;;;;;;;22.25;21.25;;;;;18.46;32.55;101084.03;5079033;27;46627;-55
2022/03/03 06:55:49;;;;;;;;;23.75;21.00;;;;;18.47;32.42;101083.06;5079121;27;45422;-54
2022/03/03 06:58:17;;;;;;;;;23.25;22.50;;;;;18.47;32.46;101080.44;5079147;27;45322;-54
2022/03/03 07:00:51;;;;;;;;;22.25;18.50;;;;;18.48;32.60;101086.56;5078024;27;45524;-55
2022/03/03 07:03:16;;;;;;;;;22.00;20.25;;;;;18.45;32.64;101082.31;5078971;27;46192;-56
2022/03/03 07:05:42;;;;;;;;;25.00;23.25;;;;;18.46;32.48;101084.03;5077663;27;45337;-55
2022/03/03 07:08:09;;;;;;;;;25.50;20.50;;;;;18.47;32.65;101096.19;5079043;27;45369;-53
2022/03/03 07:10:35;;;;;;;;;24.75;22.50;;;;;18.46;32.86;101084.03;5078010;27;45834;-53
2022/03/03 07:13:00;;;;;;;;;24.75;23.25;;;;;18.46;32.64;101094.53;5078725;27;45888;-53
2022/03/03 07:15:26;;;;;;;;;25.75;23.25;;;;;18.45;32.76;101081.44;5078531;27;45369;-55
2022/03/03 07:17:58;;;;;;;;;27.75;22.50;;;;;18.47;32.74;101087.47;5077833;27;45347;-52
2022/03/03 07:20:44;;;;;;;;;22.75;20.25;;;;;18.46;32.86;101089.28;5079344;27;45359;-56
2022/03/03 07:23:21;;;;;;;;;24.75;23.25;;;;;18.46;32.63;101091.91;5078799;27;45603;-55
2022/03/03 07:25:51;;;;;;;;;24.25;24.25;;;;;18.46;32.60;101086.66;5078701;27;45239;-51
2022/03/03 07:28:19;;;;;;;;;23.00;20.75;;;;;18.43;32.99;101084.16;5094444;27;45359;-51
2022/03/03 07:30:49;;;;;;;;;19.25;17.75;;;;;18.46;32.84;101094.53;5078841;27;45363;-52
2022/03/03 07:33:36;;;;;;;;;24.00;22.25;;;;;18.46;33.11;101091.03;5077051;27;47542;-53
2022/03/03 07:36:05;;;;;;;;;21.00;17.75;;;;;18.46;32.85;101097.16;5078427;27;45468;-51
2022/03/03 07:38:38;;;;;;;;;24.00;22.75;;;;;18.44;32.87;101092.84;5078488;27;45382;-53
2022/03/03 07:41:04;;;;;;;;;24.75;21.50;;;;;18.44;32.89;101092.84;5077284;27;45328;-52
2022/03/03 07:43:30;;;;;;;;;23.75;22.25;;;;;18.45;32.67;101086.69;5078334;27;46239;-54
2022/03/03 07:45:55;;;;;;;;;26.50;22.00;;;;;18.42;32.95;101082.44;5078571;28;45325;-54
2022/03/03 07:48:24;;;;;;;;;22.75;22.00;;;;;18.43;33.01;101089.41;5078322;27;45318;-54
2022/03/03 07:50:49;;;;;;;;;23.50;21.00;;;;;18.43;32.95;101084.16;5077805;27;45248;-52
2022/03/03 07:53:15;;;;;;;;;18.00;16.75;;;;;18.43;32.95;101089.41;5078188;27;45690;-49
2022/03/03 07:55:43;;;;;;;;;18.00;15.50;;;;;18.45;32.98;101084.06;5078146;27;45327;-56
2022/03/03 07:58:14;;;;;;;;;23.25;20.50;;;;;18.44;33.06;101091.09;5078223;27;45492;-55
2022/03/03 08:00:46;;;;;;;;;21.25;21.00;;;;;18.42;32.97;101082.44;5078326;27;45371;-54
2022/03/03 08:03:15;;;;;;;;;18.50;14.25;;;;;18.44;33.12;101085.84;5076725;28;47038;-53
2022/03/03 08:05:44;;;;;;;;;20.75;19.75;;;;;18.43;33.12;101089.41;5077856;27;45833;-51
2022/03/03 08:08:14;;;;;;;;;20.50;20.50;;;;;18.44;32.91;101080.59;5077797;27;45364;-53
2022/03/03 08:10:42;;;;;;;;;23.75;19.25;;;;;18.45;33.12;101092.81;5078286;28;45413;-52
2022/03/03 08:13:11;;;;;;;;;22.00;20.25;;;;;18.45;33.07;101092.81;5077769;27;45547;-54
2022/03/03 08:15:38;;;;;;;;;15.25;15.25;;;;;18.44;33.00;101090.22;5077680;27;45509;-55
2022/03/03 08:18:04;;;;;;;;;20.75;19.25;;;;;18.45;33.02;101082.31;5076768;28;45806;-53
2022/03/03 08:20:32;;;;;;;;;18.00;17.50;;;;;18.43;33.10;101083.28;5078059;27;45402;-53
2022/03/03 08:22:59;;;;;;;;;22.25;19.50;;;;;18.43;33.04;101078.03;5077982;27;46356;-52
2022/03/03 08:25:25;;;;;;;;;21.50;19.25;;;;;18.45;33.06;101077.06;5077959;27;45939;-53
2022/03/03 08:27:53;;;;;;;;;22.00;18.50;;;;;18.45;33.00;101079.69;5077760;27;45563;-53
2022/03/03 08:30:18;;;;;;;;;21.25;16.75;;;;;18.44;33.32;101072.72;5077932;27;45352;-53
2022/03/03 08:33:08;;;;;;;;;22.25;19.50;;;;;18.45;33.17;101073.56;5077468;27;45251;-54
2022/03/03 08:35:40;;;;;;;;;20.75;20.75;;;;;18.44;33.12;101070.09;5077488;28;45419;-52
2022/03/03 08:38:30;;;;;;;;;20.50;16.75;;;;;18.46;33.18;101067.41;5077598;27;45295;-55
2022/03/03 08:40:58;;;;;;;;;21.75;17.75;;;;;18.45;33.30;101070.94;5078145;27;45276;-55
2022/03/03 08:43:27;;;;;;;;;18.00;15.75;;;;;18.44;33.10;101064.84;5077379;27;46102;-53
2022/03/03 08:45:56;;;;;;;;;21.50;18.50;;;;;18.45;33.13;101071.81;5077452;28;45370;-55
2022/03/03 08:48:25;;;;;;;;;20.00;19.75;;;;;18.47;33.09;101079.63;5077477;27;45413;-55
2022/03/03 08:50:51;;;;;;;;;20.50;18.00;;;;;18.46;33.11;101081.41;5076377;28;45308;-51
2022/03/03 08:53:17;;;;;;;;;22.00;18.25;;;;;18.46;33.22;101077.91;5077083;27;46341;-52
2022/03/03 08:55:42;;;;;;;;;20.75;20.25;;;;;18.45;33.06;101078.81;5077215;27;45499;-52
2022/03/03 08:58:08;;;;;;;;;19.50;19.50;;;;;18.47;33.38;101090.94;5077395;27;45276;-54
2022/03/03 09:00:34;;;;;;;;;19.00;16.25;;;;;18.46;33.22;101084.03;5077395;27;45440;-51
2022/03/03 09:03:00;;;;;;;;;21.50;20.25;;;;;18.47;33.22;101087.47;5077549;27;45993;-54
2022/03/03 09:05:26;;;;;;;;;21.00;18.00;;;;;18.47;33.45;101096.19;5077132;27;45397;-51
2022/03/03 09:07:52;;;;;;;;;23.75;19.25;;;;;18.47;33.29;101090.09;5077099;27;45444;-51
2022/03/03 09:10:17;;;;;;;;;20.50;18.75;;;;;18.48;33.25;101089.19;5077508;27;45204;-55
2022/03/03 09:12:43;;;;;;;;;23.75;19.75;;;;;18.47;33.25;101093.56;5076995;27;45349;-55
2022/03/03 09:15:10;;;;;;;;;20.25;18.50;;;;;18.48;33.37;101092.66;5076888;27;45358;-53
2022/03/03 09:17:37;;;;;;;;;20.75;20.00;;;;;18.48;33.55;101081.31;5077316;27;45727;-55
2022/03/03 09:20:06;;;;;;;;;21.25;20.25;;;;;18.48;33.45;101087.41;5077102;27;45634;-54
2022/03/03 09:22:32;;;;;;;;;21.25;19.75;;;;;18.47;33.37;101090.94;5077008;27;46177;-55
2022/03/03 09:24:57;;;;;;;;;23.25;20.50;;;;;18.47;33.25;101090.94;5075821;28;45379;-55
2022/03/03 09:27:23;;;;;;;;;20.25;20.25;;;;;18.47;33.39;101097.97;5076887;27;45382;-52
2022/03/03 09:29:49;;;;;;;;;23.50;21.00;;;;;18.48;33.18;101095.28;5076929;27;45231;-52
2022/03/03 09:32:14;;;;;;;;;22.75;20.75;;;;;18.45;33.50;101092.81;5075360;28;45275;-52
2022/03/03 09:34:40;;;;;;;;;19.00;16.75;;;;;18.48;33.25;101097.06;5076785;27;45177;-56
2022/03/03 09:37:05;;;;;;;;;14.75;13.75;;;;;18.48;33.28;101099.69;5076708;27;45499;-55
2022/03/03 09:39:31;;;;;;;;;21.25;18.00;;;;;18.46;33.39;101094.53;5077305;27;45604;-53
2022/03/03 09:41:56;;;;;;;;;18.50;15.25;;;;;18.47;33.44;101098.81;5076749;27;45260;-54
2022/03/03 09:44:26;;;;;;;;;23.50;21.00;;;;;18.47;33.52;101090.94;5076804;28;45480;-55
2022/03/03 09:46:52;;;;;;;;;18.75;18.25;;;;;18.45;33.38;101084.94;5076838;27;45409;-54
2022/03/03 09:49:19;;;;;;;;;16.75;15.75;;;;;18.48;33.38;101091.81;5075647;27;45561;-52
2022/03/03 09:51:45;;;;;;;;;24.50;19.25;;;;;18.46;33.61;101086.66;5076263;27;47004;-52
2022/03/03 09:54:11;;;;;;;;;20.75;19.75;;;;;18.49;33.45;101083.03;5076573;27;45397;-52
2022/03/03 09:56:39;;;;;;;;;19.25;17.00;;;;;18.48;33.20;101087.41;5076629;27;45245;-53
2022/03/03 09:59:05;;;;;;;;;21.50;18.25;;;;;18.48;33.40;101089.19;5076730;27;45495;-52
2022/03/03 10:01:31;;;;;;;;;21.00;19.00;;;;;18.50;33.60;101084.75;5076740;27;45334;-53
2022/03/03 10:04:26;;;;;;;;;19.50;16.25;;;;;18.50;33.36;101090.00;5076129;27;45446;-53
2022/03/03 10:06:51;;;;;;;;;19.75;18.75;;;;;18.49;33.31;101089.13;5067298;27;45370;-56
2022/03/03 10:09:17;;;;;;;;;23.00;19.25;;;;;18.50;33.47;101084.75;5076489;27;45584;-52
2022/03/03 10:11:48;;;;;;;;;21.75;17.00;;;;;18.49;33.52;101083.88;5076033;28;45361;-55
2022/03/03 10:14:24;;;;;;;;;22.75;19.75;;;;;18.47;33.53;101080.44;5076893;27;46567;-54
2022/03/03 10:16:50;;;;;;;;;20.00;19.25;;;;;18.49;33.62;101083.88;5079868;27;45317;-56
2022/03/03 10:19:15;;;;;;;;;23.50;20.75;;;;;18.50;33.68;101090.00;5078667;27;45315;-52
2022/03/03 10:21:44;;;;;;;;;21.00;20.50;;;;;18.49;33.73;101086.50;5079608;27;45394;-54
2022/03/03 10:24:21;;;;;;;;;23.25;22.50;;;;;18.50;33.52;101084.75;5079486;27;45358;-52
2022/03/03 10:26:55;;;;;;;;;22.50;19.00;;;;;18.48;33.58;101082.16;5079729;27;45290;-52
2022/03/03 10:29:22;;;;;;;;;21.75;18.50;;;;;18.50;33.63;101090.00;5078437;27;45498;-54
2022/03/03 10:31:49;;;;;;;;;18.00;16.75;;;;;18.49;33.53;101085.66;5079525;27;46337;-54
2022/03/03 10:34:19;;;;;;;;;23.25;18.50;;;;;18.49;33.45;101083.88;5079472;27;45964;-54
2022/03/03 10:37:01;;;;;;;;;22.25;18.75;;;;;18.49;33.53;101081.25;5079709;27;45374;-54
2022/03/03 10:39:43;;;;;;;;;23.00;18.50;;;;;18.50;33.68;101079.50;5078346;27;45318;-52
2022/03/03 10:42:13;;;;;;;;;23.50;20.00;;;;;18.50;33.65;101088.19;5079330;27;46189;-54
2022/03/03 10:44:39;;;;;;;;;17.50;16.75;;;;;18.50;33.65;101075.09;5079141;27;45936;-54
2022/03/03 10:47:08;;;;;;;;;21.75;18.00;;;;;18.49;33.44;101077.78;5079763;27;45270;-52
2022/03/03 10:49:36;;;;;;;;;24.75;21.00;;;;;18.50;33.85;101076.88;5079785;27;45455;-54
2022/03/03 10:52:15;;;;;;;;;21.50;17.00;;;;;18.49;33.67;101068.13;5079327;27;46136;-53
2022/03/03 10:54:49;;;;;;;;;22.75;20.75;;;;;18.49;33.58;101070.75;5078925;27;45964;-53
2022/03/03 10:57:33;;;;;;;;;20.50;19.00;;;;;18.50;33.58;101080.34;5079291;27;45294;-53
2022/03/03 11:00:07;;;;;;;;;23.25;18.00;;;;;18.50;33.75;101072.47;5079364;27;45227;-57
2022/03/03 11:02:34;;;;;;;;;16.00;16.00;;;;;18.51;33.57;101073.31;5079220;27;46491;-51
2022/03/03 11:05:00;;;;;;;;;21.75;20.75;;;;;18.48;33.75;101066.41;5079016;27;45792;-56
2022/03/03 11:07:25;;;;;;;;;19.75;19.75;;;;;18.51;33.78;101075.94;5079094;27;45331;-55
2022/03/03 11:09:52;;;;;;;;;17.75;15.50;;;;;18.51;33.52;101071.53;5079317;27;45616;-54